sensor_id;sensor_type;location;lat;lon;timestamp;pressure;altitude;pressure_sealevel;temperature;humidity
15263;BME280;7733;51.554;13.590;2023-05-31T00:00:25;101303.88;;;14.80;52.75
15263;BME280;7733;51.554;13.590;2023-05-31T00:02:51;101310.09;;;15.29;51.38
15263;BME280;7733;51.554;13.590;2023-05-31T00:05:16;101309.38;;;15.19;51.73
15263;BME280;7733;51.554;13.590;2023-05-31T00:07:42;101306.84;;;15.13;52.40
15263;BME280;7733;51.554;13.590;2023-05-31T00:10:08;101302.44;;;15.13;52.21
15263;BME280;7733;51.554;13.590;2023-05-31T00:12:34;101312.03;;;15.19;51.73
15263;BME280;7733;51.554;13.590;2023-05-31T00:14:59;101318.41;;;15.55;50.59
15263;BME280;7733;51.554;13.590;2023-05-31T00:17:25;101315.28;;;15.33;51.81
15263;BME280;7733;51.554;13.590;2023-05-31T00:19:51;101320.84;;;15.18;52.21
15263;BME280;7733;51.554;13.590;2023-05-31T00:22:17;101307.25;;;15.38;51.73
15263;BME280;7733;51.554;13.590;2023-05-31T00:24:44;101317.19;;;15.73;51.04
15263;BME280;7733;51.554;13.590;2023-05-31T00:27:09;101324.25;;;15.26;52.50
15263;BME280;7733;51.554;13.590;2023-05-31T00:29:35;101321.53;;;15.29;52.36
15263;BME280;7733;51.554;13.590;2023-05-31T00:32:01;101316.69;;;15.52;51.26
15263;BME280;7733;51.554;13.590;2023-05-31T00:34:26;101315.19;;;15.38;51.92
15263;BME280;7733;51.554;13.590;2023-05-31T00:36:52;101319.88;;;15.25;52.63
15263;BME280;7733;51.554;13.590;2023-05-31T00:39:18;101316.69;;;15.06;53.03
15263;BME280;7733;51.554;13.590;2023-05-31T00:41:43;101314.44;;;14.83;53.80
15263;BME280;7733;51.554;13.590;2023-05-31T00:44:10;101317.69;;;14.98;53.01
15263;BME280;7733;51.554;13.590;2023-05-31T00:46:38;101319.97;;;15.17;52.86
15263;BME280;7733;51.554;13.590;2023-05-31T00:49:04;101325.72;;;15.42;51.82
15263;BME280;7733;51.554;13.590;2023-05-31T00:51:32;101314.75;;;15.64;51.25
15263;BME280;7733;51.554;13.590;2023-05-31T00:53:59;101312.59;;;15.81;51.19
15263;BME280;7733;51.554;13.590;2023-05-31T00:56:26;101307.91;;;15.50;51.64
15263;BME280;7733;51.554;13.590;2023-05-31T00:58:53;101316.81;;;14.97;53.70
15263;BME280;7733;51.554;13.590;2023-05-31T01:01:22;101316.00;;;14.94;53.70
15263;BME280;7733;51.554;13.590;2023-05-31T01:03:53;101318.44;;;14.52;55.31
15263;BME280;7733;51.554;13.590;2023-05-31T01:06:19;101319.66;;;14.86;54.62
15263;BME280;7733;51.554;13.590;2023-05-31T01:08:45;101313.66;;;14.75;53.97
15263;BME280;7733;51.554;13.590;2023-05-31T01:17:51;101315.00;;;14.47;54.82
15263;BME280;7733;51.554;13.590;2023-05-31T01:20:31;101315.66;;;14.59;54.59
15263;BME280;7733;51.554;13.590;2023-05-31T01:26:35;101320.84;;;14.67;54.27
15263;BME280;7733;51.554;13.590;2023-05-31T01:29:10;101322.59;;;14.68;53.90
15263;BME280;7733;51.554;13.590;2023-05-31T01:31:39;101321.28;;;14.94;53.19
15263;BME280;7733;51.554;13.590;2023-05-31T01:34:06;101317.59;;;15.04;53.07
15263;BME280;7733;51.554;13.590;2023-05-31T01:36:32;101318.31;;;13.95;57.03
15263;BME280;7733;51.554;13.590;2023-05-31T01:39:00;101315.59;;;14.01;57.79
15263;BME280;7733;51.554;13.590;2023-05-31T01:41:28;101316.47;;;14.03;57.33
15263;BME280;7733;51.554;13.590;2023-05-31T01:43:54;101324.22;;;14.15;56.75
15263;BME280;7733;51.554;13.590;2023-05-31T01:46:20;101324.22;;;14.15;57.06
15263;BME280;7733;51.554;13.590;2023-05-31T01:48:47;101319.13;;;14.00;57.96
15263;BME280;7733;51.554;13.590;2023-05-31T01:51:15;101320.88;;;14.66;55.26
15263;BME280;7733;51.554;13.590;2023-05-31T01:53:42;101309.47;;;14.64;55.30
15263;BME280;7733;51.554;13.590;2023-05-31T01:56:08;101316.66;;;13.88;57.60
15263;BME280;7733;51.554;13.590;2023-05-31T01:58:41;101314.09;;;13.83;57.67
15263;BME280;7733;51.554;13.590;2023-05-31T02:01:11;101321.22;;;13.74;58.24
15263;BME280;7733;51.554;13.590;2023-05-31T02:03:38;101321.34;;;13.64;58.62
15263;BME280;7733;51.554;13.590;2023-05-31T02:06:04;101313.31;;;13.74;58.15
15263;BME280;7733;51.554;13.590;2023-05-31T02:08:30;101323.06;;;13.68;57.74
15263;BME280;7733;51.554;13.590;2023-05-31T02:10:56;101331.34;;;13.33;59.07
15263;BME280;7733;51.554;13.590;2023-05-31T02:13:26;101318.25;;;13.26;59.34
15263;BME280;7733;51.554;13.590;2023-05-31T02:15:52;101316.28;;;13.46;58.66
15263;BME280;7733;51.554;13.590;2023-05-31T02:18:19;101323.25;;;13.50;58.46
15263;BME280;7733;51.554;13.590;2023-05-31T02:20:47;101317.69;;;13.75;57.30
15263;BME280;7733;51.554;13.590;2023-05-31T02:23:14;101322.16;;;13.69;57.85
15263;BME280;7733;51.554;13.590;2023-05-31T02:25:40;101325.03;;;13.48;58.82
15263;BME280;7733;51.554;13.590;2023-05-31T02:28:06;101332.25;;;13.29;59.69
15263;BME280;7733;51.554;13.590;2023-05-31T02:30:35;101327.88;;;13.30;59.18
15263;BME280;7733;51.554;13.590;2023-05-31T02:33:01;101322.63;;;13.27;59.20
15263;BME280;7733;51.554;13.590;2023-05-31T02:35:27;101330.81;;;12.93;60.55
15263;BME280;7733;51.554;13.590;2023-05-31T02:37:53;101328.28;;;12.78;61.04
15263;BME280;7733;51.554;13.590;2023-05-31T02:40:19;101325.84;;;12.54;62.35
15263;BME280;7733;51.554;13.590;2023-05-31T02:42:44;101329.47;;;12.34;62.95
15263;BME280;7733;51.554;13.590;2023-05-31T02:45:10;101332.16;;;12.28;63.40
15263;BME280;7733;51.554;13.590;2023-05-31T02:47:38;101325.19;;;13.33;59.12
15263;BME280;7733;51.554;13.590;2023-05-31T02:50:09;101324.03;;;12.59;62.43
15263;BME280;7733;51.554;13.590;2023-05-31T02:52:37;101326.34;;;13.03;61.53
15263;BME280;7733;51.554;13.590;2023-05-31T02:55:04;101332.16;;;12.30;65.08
15263;BME280;7733;51.554;13.590;2023-05-31T02:57:29;101330.66;;;13.12;60.68
15263;BME280;7733;51.554;13.590;2023-05-31T02:59:59;101328.19;;;12.92;61.35
15263;BME280;7733;51.554;13.590;2023-05-31T03:02:25;101332.81;;;12.64;62.90
15263;BME280;7733;51.554;13.590;2023-05-31T03:04:51;101337.19;;;12.65;62.64
15263;BME280;7733;51.554;13.590;2023-05-31T03:07:17;101331.19;;;12.38;64.17
15263;BME280;7733;51.554;13.590;2023-05-31T03:09:43;101324.09;;;12.53;63.46
15263;BME280;7733;51.554;13.590;2023-05-31T03:12:09;101328.31;;;12.76;62.99
15263;BME280;7733;51.554;13.590;2023-05-31T03:14:36;101330.03;;;12.82;62.32
15263;BME280;7733;51.554;13.590;2023-05-31T03:17:02;101332.06;;;12.43;63.69
15263;BME280;7733;51.554;13.590;2023-05-31T03:19:28;101334.69;;;12.39;64.21
15263;BME280;7733;51.554;13.590;2023-05-31T03:21:54;101328.06;;;13.07;60.60
15263;BME280;7733;51.554;13.590;2023-05-31T03:24:20;101335.53;;;12.50;63.16
15263;BME280;7733;51.554;13.590;2023-05-31T03:26:45;101340.88;;;12.35;64.23
15263;BME280;7733;51.554;13.590;2023-05-31T03:29:11;101338.09;;;12.58;63.09
15263;BME280;7733;51.554;13.590;2023-05-31T03:31:37;101334.19;;;13.07;60.94
15263;BME280;7733;51.554;13.590;2023-05-31T03:34:03;101338.38;;;13.31;59.58
15263;BME280;7733;51.554;13.590;2023-05-31T03:36:28;101341.13;;;13.24;59.66
15263;BME280;7733;51.554;13.590;2023-05-31T03:38:54;101350.22;;;12.83;61.76
15263;BME280;7733;51.554;13.590;2023-05-31T03:41:20;101345.81;;;12.85;62.50
15263;BME280;7733;51.554;13.590;2023-05-31T03:43:46;101344.97;;;12.82;62.73
15263;BME280;7733;51.554;13.590;2023-05-31T03:46:12;101343.38;;;12.55;63.82
15263;BME280;7733;51.554;13.590;2023-05-31T03:48:37;101342.53;;;12.49;64.21
15263;BME280;7733;51.554;13.590;2023-05-31T03:51:03;101340.56;;;12.80;63.07
15263;BME280;7733;51.554;13.590;2023-05-31T03:53:29;101337.97;;;12.76;63.86
15263;BME280;7733;51.554;13.590;2023-05-31T03:55:55;101341.56;;;12.66;64.52
15263;BME280;7733;51.554;13.590;2023-05-31T03:58:20;101341.69;;;12.47;65.26
15263;BME280;7733;51.554;13.590;2023-05-31T04:00:46;101348.44;;;12.84;63.87
15263;BME280;7733;51.554;13.590;2023-05-31T04:03:12;101344.63;;;13.17;62.38
15263;BME280;7733;51.554;13.590;2023-05-31T04:05:39;101352.13;;;12.63;65.11
15263;BME280;7733;51.554;13.590;2023-05-31T04:08:05;101343.03;;;13.03;63.07
15263;BME280;7733;51.554;13.590;2023-05-31T04:10:32;101349.63;;;13.50;60.64
15263;BME280;7733;51.554;13.590;2023-05-31T04:12:58;101350.34;;;13.64;60.01
15263;BME280;7733;51.554;13.590;2023-05-31T04:15:24;101346.72;;;13.73;59.58
15263;BME280;7733;51.554;13.590;2023-05-31T04:17:50;101349.13;;;13.93;58.82
15263;BME280;7733;51.554;13.590;2023-05-31T04:20:16;101349.09;;;13.96;59.45
15263;BME280;7733;51.554;13.590;2023-05-31T04:22:42;101352.78;;;13.80;61.13
15263;BME280;7733;51.554;13.590;2023-05-31T04:25:08;101347.56;;;13.77;61.81
15263;BME280;7733;51.554;13.590;2023-05-31T04:27:34;101349.13;;;13.93;60.75
15263;BME280;7733;51.554;13.590;2023-05-31T04:30:05;101348.81;;;14.17;60.31
15263;BME280;7733;51.554;13.590;2023-05-31T04:32:31;101343.31;;;14.32;59.05
15263;BME280;7733;51.554;13.590;2023-05-31T04:35:02;101345.78;;;14.48;59.44
15263;BME280;7733;51.554;13.590;2023-05-31T04:37:32;101348.47;;;14.45;60.59
15263;BME280;7733;51.554;13.590;2023-05-31T04:39:59;101343.91;;;14.56;59.04
15263;BME280;7733;51.554;13.590;2023-05-31T04:42:28;101346.31;;;14.71;58.75
15263;BME280;7733;51.554;13.590;2023-05-31T04:44:55;101343.34;;;14.91;58.56
15263;BME280;7733;51.554;13.590;2023-05-31T04:47:24;101351.06;;;14.48;63.05
15263;BME280;7733;51.554;13.590;2023-05-31T04:49:53;101347.59;;;14.46;64.02
15263;BME280;7733;51.554;13.590;2023-05-31T04:52:29;101345.78;;;15.03;62.25
15263;BME280;7733;51.554;13.590;2023-05-31T04:54:57;101345.81;;;15.02;62.68
15263;BME280;7733;51.554;13.590;2023-05-31T04:57:24;101340.16;;;15.21;62.07
15263;BME280;7733;51.554;13.590;2023-05-31T04:59:52;101346.91;;;15.39;61.47
15263;BME280;7733;51.554;13.590;2023-05-31T05:02:18;101345.88;;;15.48;61.90
15263;BME280;7733;51.554;13.590;2023-05-31T05:04:45;101338.25;;;15.77;61.03
15263;BME280;7733;51.554;13.590;2023-05-31T05:07:11;101341.81;;;15.76;60.89
15263;BME280;7733;51.554;13.590;2023-05-31T05:09:37;101341.28;;;16.01;59.45
15263;BME280;7733;51.554;13.590;2023-05-31T05:12:03;101340.94;;;16.18;58.63
15263;BME280;7733;51.554;13.590;2023-05-31T05:14:31;101338.19;;;16.24;58.92
15263;BME280;7733;51.554;13.590;2023-05-31T05:16:57;101340.53;;;16.36;58.41
15263;BME280;7733;51.554;13.590;2023-05-31T05:19:22;101343.13;;;16.39;58.71
15263;BME280;7733;51.554;13.590;2023-05-31T05:21:48;101336.41;;;16.63;57.91
15263;BME280;7733;51.554;13.590;2023-05-31T05:24:14;101333.91;;;16.55;57.68
15263;BME280;7733;51.554;13.590;2023-05-31T05:26:41;101338.34;;;16.55;58.38
15263;BME280;7733;51.554;13.590;2023-05-31T05:29:06;101336.38;;;16.64;57.79
15263;BME280;7733;51.554;13.590;2023-05-31T05:31:32;101338.59;;;16.83;57.47
15263;BME280;7733;51.554;13.590;2023-05-31T05:33:59;101333.94;;;16.92;56.67
15263;BME280;7733;51.554;13.590;2023-05-31T05:36:24;101338.81;;;17.09;56.48
15263;BME280;7733;51.554;13.590;2023-05-31T05:38:50;101338.72;;;16.77;58.04
15263;BME280;7733;51.554;13.590;2023-05-31T05:41:16;101337.72;;;17.16;56.04
15263;BME280;7733;51.554;13.590;2023-05-31T05:43:43;101345.78;;;17.13;57.46
15263;BME280;7733;51.554;13.590;2023-05-31T05:46:08;101337.94;;;17.09;57.49
15263;BME280;7733;51.554;13.590;2023-05-31T05:48:34;101341.13;;;16.87;58.22
15263;BME280;7733;51.554;13.590;2023-05-31T05:51:00;101331.41;;;17.22;56.84
15263;BME280;7733;51.554;13.590;2023-05-31T05:53:26;101345.72;;;17.49;56.50
15263;BME280;7733;51.554;13.590;2023-05-31T05:55:53;101333.59;;;17.39;56.80
15263;BME280;7733;51.554;13.590;2023-05-31T05:58:19;101337.03;;;17.10;58.14
15263;BME280;7733;51.554;13.590;2023-05-31T06:00:46;101328.56;;;17.62;56.24
15263;BME280;7733;51.554;13.590;2023-05-31T06:03:13;101332.63;;;17.75;55.84
15263;BME280;7733;51.554;13.590;2023-05-31T06:05:41;101333.66;;;18.01;55.17
15263;BME280;7733;51.554;13.590;2023-05-31T06:08:11;101339.16;;;17.94;55.34
15263;BME280;7733;51.554;13.590;2023-05-31T06:10:37;101332.44;;;17.81;55.07
15263;BME280;7733;51.554;13.590;2023-05-31T06:13:04;101338.88;;;18.04;54.95
15263;BME280;7733;51.554;13.590;2023-05-31T06:15:30;101338.97;;;18.30;54.49
15263;BME280;7733;51.554;13.590;2023-05-31T06:17:56;101344.13;;;18.35;54.91
15263;BME280;7733;51.554;13.590;2023-05-31T06:20:22;101342.06;;;18.15;55.07
15263;BME280;7733;51.554;13.590;2023-05-31T06:22:47;101343.69;;;17.91;55.50
15263;BME280;7733;51.554;13.590;2023-05-31T06:25:15;101345.16;;;18.59;54.44
15263;BME280;7733;51.554;13.590;2023-05-31T06:27:43;101349.63;;;17.99;54.55
15263;BME280;7733;51.554;13.590;2023-05-31T06:30:14;101345.03;;;18.62;53.72
15263;BME280;7733;51.554;13.590;2023-05-31T06:32:40;101343.06;;;18.96;52.54
15263;BME280;7733;51.554;13.590;2023-05-31T06:35:06;101346.88;;;18.89;53.25
15263;BME280;7733;51.554;13.590;2023-05-31T06:37:32;101354.56;;;18.97;52.69
15263;BME280;7733;51.554;13.590;2023-05-31T06:39:58;101341.94;;;18.77;52.87
15263;BME280;7733;51.554;13.590;2023-05-31T06:42:24;101335.19;;;18.67;53.02
15263;BME280;7733;51.554;13.590;2023-05-31T06:44:50;101340.13;;;19.05;52.89
15263;BME280;7733;51.554;13.590;2023-05-31T06:47:16;101335.19;;;18.67;53.05
15263;BME280;7733;51.554;13.590;2023-05-31T06:49:42;101341.94;;;18.77;52.95
15263;BME280;7733;51.554;13.590;2023-05-31T06:52:08;101351.47;;;18.84;52.99
15263;BME280;7733;51.554;13.590;2023-05-31T06:54:37;101349.75;;;18.81;54.96
15263;BME280;7733;51.554;13.590;2023-05-31T06:57:05;101343.88;;;18.44;56.02
15263;BME280;7733;51.554;13.590;2023-05-31T06:59:31;101336.63;;;18.77;55.25
15263;BME280;7733;51.554;13.590;2023-05-31T07:01:57;101341.75;;;19.09;54.01
15263;BME280;7733;51.554;13.590;2023-05-31T07:04:23;101345.38;;;19.07;54.06
15263;BME280;7733;51.554;13.590;2023-05-31T07:06:50;101329.59;;;19.52;52.42
15263;BME280;7733;51.554;13.590;2023-05-31T07:09:16;101335.03;;;19.24;52.51
15263;BME280;7733;51.554;13.590;2023-05-31T07:11:42;101332.91;;;19.34;52.42
15263;BME280;7733;51.554;13.590;2023-05-31T07:14:09;101332.63;;;19.41;51.85
15263;BME280;7733;51.554;13.590;2023-05-31T07:16:35;101319.88;;;19.51;51.87
15263;BME280;7733;51.554;13.590;2023-05-31T07:19:05;101317.63;;;19.65;51.52
15263;BME280;7733;51.554;13.590;2023-05-31T07:21:31;101326.63;;;19.61;51.82
15263;BME280;7733;51.554;13.590;2023-05-31T07:23:57;101329.34;;;19.85;51.05
15263;BME280;7733;51.554;13.590;2023-05-31T07:26:23;101319.56;;;19.85;50.91
15263;BME280;7733;51.554;13.590;2023-05-31T07:28:49;101315.63;;;20.17;50.70
15263;BME280;7733;51.554;13.590;2023-05-31T07:31:19;101316.94;;;20.52;48.74
15263;BME280;7733;51.554;13.590;2023-05-31T07:33:46;101309.50;;;20.82;48.53
15263;BME280;7733;51.554;13.590;2023-05-31T07:36:12;101300.69;;;20.80;48.83
15263;BME280;7733;51.554;13.590;2023-05-31T07:38:37;101307.41;;;21.11;47.62
15263;BME280;7733;51.554;13.590;2023-05-31T07:41:03;101319.66;;;21.15;47.06
15263;BME280;7733;51.554;13.590;2023-05-31T07:43:30;101295.25;;;21.65;45.31
15263;BME280;7733;51.554;13.590;2023-05-31T07:45:56;101297.63;;;20.89;45.60
15263;BME280;7733;51.554;13.590;2023-05-31T07:48:23;101294.53;;;21.80;44.63
15263;BME280;7733;51.554;13.590;2023-05-31T07:50:50;101289.06;;;22.02;42.63
15263;BME280;7733;51.554;13.590;2023-05-31T07:53:16;101292.56;;;22.23;42.60
15263;BME280;7733;51.554;13.590;2023-05-31T07:55:44;101292.66;;;22.57;42.30
15263;BME280;7733;51.554;13.590;2023-05-31T07:58:10;101288.44;;;22.70;42.01
15263;BME280;7733;51.554;13.590;2023-05-31T08:00:38;101285.94;;;23.02;41.56
15263;BME280;7733;51.554;13.590;2023-05-31T08:03:04;101285.72;;;23.24;41.06
15263;BME280;7733;51.554;13.590;2023-05-31T08:05:31;101277.53;;;23.27;38.86
15263;BME280;7733;51.554;13.590;2023-05-31T08:07:57;101280.59;;;23.02;41.16
15263;BME280;7733;51.554;13.590;2023-05-31T08:10:23;101284.00;;;22.52;41.60
15263;BME280;7733;51.554;13.590;2023-05-31T08:12:49;101274.94;;;23.25;39.94
15263;BME280;7733;51.554;13.590;2023-05-31T08:15:15;101272.56;;;23.02;38.81
15263;BME280;7733;51.554;13.590;2023-05-31T08:17:41;101267.22;;;23.70;38.02
15263;BME280;7733;51.554;13.590;2023-05-31T08:20:10;101267.16;;;24.18;37.83
15263;BME280;7733;51.554;13.590;2023-05-31T08:22:37;101259.84;;;24.06;37.22
15263;BME280;7733;51.554;13.590;2023-05-31T08:25:03;101266.47;;;24.15;37.77
15263;BME280;7733;51.554;13.590;2023-05-31T08:27:29;101255.81;;;24.61;36.44
15263;BME280;7733;51.554;13.590;2023-05-31T08:29:55;101258.75;;;25.02;35.53
15263;BME280;7733;51.554;13.590;2023-05-31T08:32:21;101249.50;;;25.07;34.66
15263;BME280;7733;51.554;13.590;2023-05-31T08:34:46;101251.22;;;25.37;34.62
15263;BME280;7733;51.554;13.590;2023-05-31T08:37:12;101255.88;;;25.63;34.81
15263;BME280;7733;51.554;13.590;2023-05-31T08:39:38;101256.06;;;25.74;34.15
15263;BME280;7733;51.554;13.590;2023-05-31T08:42:11;101244.91;;;25.38;35.21
15263;BME280;7733;51.554;13.590;2023-05-31T08:44:38;101240.66;;;25.05;35.51
15263;BME280;7733;51.554;13.590;2023-05-31T08:47:10;101244.78;;;25.11;34.57
15263;BME280;7733;51.554;13.590;2023-05-31T08:49:39;101240.00;;;25.16;35.26
15263;BME280;7733;51.554;13.590;2023-05-31T08:52:06;101236.28;;;25.75;33.60
15263;BME280;7733;51.554;13.590;2023-05-31T08:54:36;101234.63;;;25.16;33.72
15263;BME280;7733;51.554;13.590;2023-05-31T08:57:02;101241.94;;;24.84;34.71
15263;BME280;7733;51.554;13.590;2023-05-31T08:59:30;101231.97;;;25.30;34.07
15263;BME280;7733;51.554;13.590;2023-05-31T09:01:57;101230.13;;;25.31;34.42
15263;BME280;7733;51.554;13.590;2023-05-31T09:04:25;101227.44;;;24.86;34.20
15263;BME280;7733;51.554;13.590;2023-05-31T09:06:51;101226.16;;;24.64;34.90
15263;BME280;7733;51.554;13.590;2023-05-31T09:09:17;101229.28;;;25.30;35.24
15263;BME280;7733;51.554;13.590;2023-05-31T09:11:45;101228.41;;;24.85;34.05
15263;BME280;7733;51.554;13.590;2023-05-31T09:14:11;101234.34;;;25.06;33.76
15263;BME280;7733;51.554;13.590;2023-05-31T09:16:37;101230.09;;;24.72;33.64
15263;BME280;7733;51.554;13.590;2023-05-31T09:19:05;101224.00;;;24.54;34.17
15263;BME280;7733;51.554;13.590;2023-05-31T09:21:39;101224.88;;;24.85;33.78
15263;BME280;7733;51.554;13.590;2023-05-31T09:24:06;101227.00;;;24.64;32.82
15263;BME280;7733;51.554;13.590;2023-05-31T09:26:33;101223.44;;;24.94;32.99
15263;BME280;7733;51.554;13.590;2023-05-31T09:28:59;101218.78;;;25.83;32.23
15263;BME280;7733;51.554;13.590;2023-05-31T09:31:25;101211.50;;;26.53;31.97
15263;BME280;7733;51.554;13.590;2023-05-31T09:33:53;101220.00;;;26.59;31.11
15263;BME280;7733;51.554;13.590;2023-05-31T09:36:25;101215.78;;;26.95;30.52
15263;BME280;7733;51.554;13.590;2023-05-31T09:38:59;101215.53;;;26.73;30.74
15263;BME280;7733;51.554;13.590;2023-05-31T09:41:27;101204.66;;;25.93;31.64
15263;BME280;7733;51.554;13.590;2023-05-31T09:43:53;101208.16;;;25.67;32.33
15263;BME280;7733;51.554;13.590;2023-05-31T09:46:20;101200.56;;;25.88;32.12
15263;BME280;7733;51.554;13.590;2023-05-31T09:48:59;101205.00;;;25.74;32.01
15263;BME280;7733;51.554;13.590;2023-05-31T09:51:25;101198.84;;;25.58;32.19
15263;BME280;7733;51.554;13.590;2023-05-31T09:53:51;101197.66;;;25.91;32.16
15263;BME280;7733;51.554;13.590;2023-05-31T09:56:23;101195.50;;;26.77;30.49
15263;BME280;7733;51.554;13.590;2023-05-31T09:58:51;101191.25;;;25.79;31.46
15263;BME280;7733;51.554;13.590;2023-05-31T10:01:18;101186.81;;;26.86;30.58
15263;BME280;7733;51.554;13.590;2023-05-31T10:03:48;101181.75;;;27.32;29.64
15263;BME280;7733;51.554;13.590;2023-05-31T10:06:17;101179.78;;;27.96;29.60
15263;BME280;7733;51.554;13.590;2023-05-31T10:08:44;101174.81;;;27.53;29.53
15263;BME280;7733;51.554;13.590;2023-05-31T10:11:11;101174.41;;;27.96;29.27
15263;BME280;7733;51.554;13.590;2023-05-31T10:13:42;101167.81;;;28.48;28.95
15263;BME280;7733;51.554;13.590;2023-05-31T10:16:11;101158.72;;;28.49;28.67
15263;BME280;7733;51.554;13.590;2023-05-31T10:18:42;101163.22;;;28.13;29.41
15263;BME280;7733;51.554;13.590;2023-05-31T10:21:28;101161.88;;;28.43;28.94
15263;BME280;7733;51.554;13.590;2023-05-31T10:24:02;101154.31;;;28.94;28.19
15263;BME280;7733;51.554;13.590;2023-05-31T10:26:59;101150.09;;;27.59;30.04
15263;BME280;7733;51.554;13.590;2023-05-31T10:29:35;101152.66;;;28.34;29.60
15263;BME280;7733;51.554;13.590;2023-05-31T10:32:17;101152.56;;;28.23;28.95
15263;BME280;7733;51.554;13.590;2023-05-31T10:34:45;101156.69;;;28.29;28.38
15263;BME280;7733;51.554;13.590;2023-05-31T10:37:12;101143.34;;;28.85;27.95
15263;BME280;7733;51.554;13.590;2023-05-31T10:40:15;101139.69;;;29.42;27.58
15263;BME280;7733;51.554;13.590;2023-05-31T10:42:59;101138.47;;;29.68;27.03
15263;BME280;7733;51.554;13.590;2023-05-31T10:48:20;101124.59;;;27.65;29.62
15263;BME280;7733;51.554;13.590;2023-05-31T10:50:58;101125.94;;;27.21;29.37
15263;BME280;7733;51.554;13.590;2023-05-31T10:53:36;101115.38;;;28.15;28.83
15263;BME280;7733;51.554;13.590;2023-05-31T10:56:07;101119.56;;;28.19;28.90
15263;BME280;7733;51.554;13.590;2023-05-31T10:58:48;101112.75;;;27.79;29.07
15263;BME280;7733;51.554;13.590;2023-05-31T11:01:17;101115.78;;;27.62;29.22
15263;BME280;7733;51.554;13.590;2023-05-31T11:03:53;101116.88;;;26.46;29.92
15263;BME280;7733;51.554;13.590;2023-05-31T11:06:26;101108.69;;;27.97;28.72
15263;BME280;7733;51.554;13.590;2023-05-31T11:09:00;101111.16;;;27.76;29.26
15263;BME280;7733;51.554;13.590;2023-05-31T11:14:30;101102.91;;;27.41;30.40
15263;BME280;7733;51.554;13.590;2023-05-31T11:19:35;101098.09;;;27.34;30.84
15263;BME280;7733;51.554;13.590;2023-05-31T11:22:09;101097.31;;;27.08;30.36
15263;BME280;7733;51.554;13.590;2023-05-31T11:24:55;101102.88;;;26.92;30.54
15263;BME280;7733;51.554;13.590;2023-05-31T11:27:36;101097.53;;;27.05;30.07
15263;BME280;7733;51.554;13.590;2023-05-31T11:30:12;101097.81;;;26.49;30.39
15263;BME280;7733;51.554;13.590;2023-05-31T11:35:06;101089.50;;;28.13;29.16
15263;BME280;7733;51.554;13.590;2023-05-31T11:37:37;101084.50;;;27.35;29.86
15263;BME280;7733;51.554;13.590;2023-05-31T11:40:07;101094.22;;;27.98;28.50
15263;BME280;7733;51.554;13.590;2023-05-31T11:42:37;101098.19;;;28.05;28.57
15263;BME280;7733;51.554;13.590;2023-05-31T11:45:08;101068.06;;;28.23;28.33
15263;BME280;7733;51.554;13.590;2023-05-31T11:50:14;101075.81;;;27.92;28.52
15263;BME280;7733;51.554;13.590;2023-05-31T11:52:44;101070.00;;;28.09;27.86
15263;BME280;7733;51.554;13.590;2023-05-31T11:55:11;101064.75;;;28.65;28.01
15263;BME280;7733;51.554;13.590;2023-05-31T11:57:46;101070.66;;;28.70;28.21
15263;BME280;7733;51.554;13.590;2023-05-31T12:00:13;101071.06;;;28.42;27.84
15263;BME280;7733;51.554;13.590;2023-05-31T12:02:44;101065.41;;;28.91;27.87
15263;BME280;7733;51.554;13.590;2023-05-31T12:05:14;101067.38;;;28.32;29.04
15263;BME280;7733;51.554;13.590;2023-05-31T12:07:44;101061.00;;;28.33;28.89
15263;BME280;7733;51.554;13.590;2023-05-31T12:10:11;101066.56;;;28.07;29.07
15263;BME280;7733;51.554;13.590;2023-05-31T12:12:40;101055.19;;;27.91;29.87
15263;BME280;7733;51.554;13.590;2023-05-31T12:15:09;101057.09;;;27.78;29.74
15263;BME280;7733;51.554;13.590;2023-05-31T12:17:38;101057.84;;;28.04;29.40
15263;BME280;7733;51.554;13.590;2023-05-31T12:20:05;101051.72;;;28.13;29.05
15263;BME280;7733;51.554;13.590;2023-05-31T12:22:31;101044.38;;;28.15;28.95
15263;BME280;7733;51.554;13.590;2023-05-31T12:24:57;101033.28;;;27.96;28.35
15263;BME280;7733;51.554;13.590;2023-05-31T12:27:25;101037.63;;;28.78;28.00
15263;BME280;7733;51.554;13.590;2023-05-31T12:29:58;101036.59;;;27.64;29.23
15263;BME280;7733;51.554;13.590;2023-05-31T12:32:26;101032.53;;;27.46;29.88
15263;BME280;7733;51.554;13.590;2023-05-31T12:35:08;101022.91;;;27.78;29.51
15263;BME280;7733;51.554;13.590;2023-05-31T12:37:39;101023.75;;;28.14;28.65
15263;BME280;7733;51.554;13.590;2023-05-31T12:40:13;101023.63;;;28.51;28.84
15263;BME280;7733;51.554;13.590;2023-05-31T12:42:39;101024.25;;;28.65;28.98
15263;BME280;7733;51.554;13.590;2023-05-31T12:45:07;101029.34;;;29.35;28.93
15263;BME280;7733;51.554;13.590;2023-05-31T12:47:34;101023.56;;;29.40;29.12
15263;BME280;7733;51.554;13.590;2023-05-31T12:50:06;101026.41;;;29.38;26.60
15263;BME280;7733;51.554;13.590;2023-05-31T12:52:38;101027.09;;;29.95;25.52
15263;BME280;7733;51.554;13.590;2023-05-31T12:55:08;101022.38;;;30.59;25.03
15263;BME280;7733;51.554;13.590;2023-05-31T12:57:35;101019.59;;;29.01;24.71
15263;BME280;7733;51.554;13.590;2023-05-31T13:00:05;101014.81;;;29.59;24.21
15263;BME280;7733;51.554;13.590;2023-05-31T13:02:35;101012.41;;;29.22;26.71
15263;BME280;7733;51.554;13.590;2023-05-31T13:05:01;101000.13;;;30.05;25.90
15263;BME280;7733;51.554;13.590;2023-05-31T13:07:27;101000.75;;;30.39;26.19
15263;BME280;7733;51.554;13.590;2023-05-31T13:09:53;101004.19;;;30.41;25.04
15263;BME280;7733;51.554;13.590;2023-05-31T13:12:20;100997.84;;;29.89;25.61
15263;BME280;7733;51.554;13.590;2023-05-31T13:14:47;101002.69;;;30.48;25.38
15263;BME280;7733;51.554;13.590;2023-05-31T13:17:13;100992.25;;;30.74;25.59